createdAt,value
2018-09-17T00:00:47.129Z,64.99
2018-09-17T00:03:17.384Z,65.11
2018-09-17T00:05:47.411Z,65.27
2018-09-17T00:08:17.421Z,65.42
2018-09-17T00:10:47.186Z,65.49
2018-09-17T00:13:16.830Z,65.20
2018-09-17T00:15:46.652Z,65.33
2018-09-17T00:18:16.111Z,65.70
2018-09-17T00:20:45.764Z,65.58
2018-09-17T00:23:15.397Z,65.40
2018-09-17T00:25:45.165Z,65.52
2018-09-17T00:28:15.018Z,65.52
2018-09-17T00:30:44.702Z,65.68
2018-09-17T00:33:14.433Z,65.46
2018-09-17T00:35:44.904Z,65.58
2018-09-17T00:38:15.083Z,65.74
2018-09-17T00:40:44.737Z,65.66
2018-09-17T00:43:14.404Z,65.39
2018-09-17T00:45:44.073Z,65.32
2018-09-17T00:48:13.658Z,65.43
2018-09-17T00:50:43.204Z,65.59
2018-09-17T00:53:12.784Z,65.51
2018-09-17T00:55:42.435Z,65.41
2018-09-17T00:58:13.034Z,65.53
2018-09-17T01:00:42.741Z,65.85
2018-09-17T01:03:12.216Z,65.60
2018-09-17T01:05:41.842Z,65.65
2018-09-17T01:08:11.657Z,65.91
2018-09-17T01:10:41.218Z,65.72
2018-09-17T01:13:11.001Z,65.90
2018-09-17T01:15:40.398Z,66.06
2018-09-17T01:18:10.580Z,66.16
2018-09-17T01:20:40.474Z,66.00
2018-09-17T01:23:09.957Z,66.05
2018-09-17T01:25:39.821Z,65.97
2018-09-17T01:28:09.381Z,65.96
2018-09-17T01:30:39.934Z,66.02
2018-09-17T01:33:09.552Z,66.26
2018-09-17T01:35:39.150Z,66.10
2018-09-17T01:38:08.704Z,66.22
2018-09-17T01:40:38.769Z,66.34
2018-09-17T01:43:08.296Z,66.14
2018-09-17T01:45:37.879Z,66.38
2018-09-17T01:48:07.597Z,66.40
2018-09-17T01:50:37.747Z,66.21
2018-09-17T01:53:07.294Z,66.22
2018-09-17T01:55:37.076Z,66.25
2018-09-17T01:58:06.752Z,66.11
2018-09-17T02:00:36.326Z,66.39
2018-09-17T02:03:05.973Z,66.54
2018-09-17T02:05:35.557Z,66.36
2018-09-17T02:08:05.782Z,66.61
2018-09-17T02:10:35.421Z,66.25
2018-09-17T02:13:04.937Z,66.36
2018-09-17T02:15:34.596Z,66.57
2018-09-17T02:18:04.234Z,66.54
2018-09-17T02:20:33.831Z,66.54
2018-09-17T02:23:03.582Z,66.61
2018-09-17T02:25:33.256Z,66.44
2018-09-17T02:28:02.877Z,66.29
2018-09-17T02:30:33.103Z,66.47
2018-09-17T02:33:03.480Z,66.66
2018-09-17T02:35:33.195Z,66.60
2018-09-17T02:38:03.790Z,66.38
2018-09-17T02:40:34.225Z,66.45
2018-09-17T02:43:03.700Z,66.40
2018-09-17T02:45:33.239Z,66.42
2018-09-17T02:48:03.430Z,66.62
2018-09-17T02:50:33.296Z,66.39
2018-09-17T02:53:03.901Z,66.43
2018-09-17T02:55:34.033Z,66.64
2018-09-17T02:58:06.097Z,66.60
2018-09-17T03:00:37.078Z,66.99
2018-09-17T03:03:06.977Z,66.66
2018-09-17T03:05:37.645Z,66.80
2018-09-17T03:08:07.305Z,66.67
2018-09-17T03:10:37.777Z,66.50
2018-09-17T03:13:07.364Z,66.73
2018-09-17T03:15:50.689Z,66.65
2018-09-17T03:18:33.116Z,66.86
2018-09-17T03:21:03.761Z,67.02
2018-09-17T03:23:37.647Z,66.71
2018-09-17T03:26:07.400Z,66.92
2018-09-17T03:28:38.143Z,66.83
2018-09-17T03:31:08.490Z,67.22
2018-09-17T03:33:38.991Z,66.87
2018-09-17T03:36:09.317Z,67.17
2018-09-17T03:38:42.178Z,66.89
2018-09-17T03:41:12.813Z,66.76
2018-09-17T03:43:44.183Z,66.99
2018-09-17T03:46:13.840Z,66.96
2018-09-17T03:48:43.634Z,67.20
2018-09-17T03:51:14.363Z,66.94
2018-09-17T03:53:44.278Z,67.04
2018-09-17T03:56:14.948Z,66.81
2018-09-17T03:58:45.525Z,67.23
2018-09-17T04:01:15.308Z,66.98
2018-09-17T04:03:45.082Z,66.78
2018-09-17T04:06:15.393Z,66.98
2018-09-17T04:08:45.801Z,66.93
2018-09-17T04:11:15.833Z,66.95
2018-09-17T04:13:45.557Z,67.16
2018-09-17T04:16:15.833Z,67.25
2018-09-17T04:18:45.423Z,67.11
2018-09-17T04:21:15.170Z,66.92
2018-09-17T04:23:44.699Z,67.09
2018-09-17T04:26:15.727Z,67.04
2018-09-17T04:28:45.389Z,67.02
2018-09-17T04:31:16.069Z,67.02
2018-09-17T04:33:45.724Z,67.01
2018-09-17T04:36:16.618Z,67.08
2018-09-17T04:38:48.305Z,67.01
2018-09-17T04:41:22.797Z,67.14
2018-09-17T04:43:53.367Z,66.73
2018-09-17T04:46:25.737Z,67.16
2018-09-17T04:48:56.843Z,67.18
2018-09-17T04:51:28.135Z,67.17
2018-09-17T04:53:57.967Z,67.34
2018-09-17T04:56:28.071Z,67.18
2018-09-17T04:58:58.081Z,67.08
2018-09-17T05:01:29.309Z,67.20
2018-09-17T05:03:59.140Z,67.12
2018-09-17T05:06:29.061Z,66.97
2018-09-17T05:08:58.962Z,67.23
2018-09-17T05:11:29.169Z,67.15
2018-09-17T05:13:58.906Z,67.03
2018-09-17T05:16:29.463Z,67.24
2018-09-17T05:19:01.209Z,67.15
2018-09-17T05:21:32.462Z,67.00
2018-09-17T05:24:02.189Z,67.69
2018-09-17T05:26:32.169Z,67.55
2018-09-17T05:29:02.816Z,67.46
2018-09-17T05:31:32.465Z,67.40
2018-09-17T05:34:03.323Z,67.45
2018-09-17T05:36:33.205Z,67.49
2018-09-17T05:39:03.884Z,67.52
2018-09-17T05:41:33.717Z,67.59
2018-09-17T05:44:03.437Z,67.28
2018-09-17T05:46:33.402Z,67.40
2018-09-17T05:49:03.199Z,67.67
2018-09-17T05:51:32.725Z,67.38
2018-09-17T05:54:03.372Z,67.68
2018-09-17T05:56:34.192Z,67.78
2018-09-17T05:59:04.258Z,67.79
2018-09-17T06:01:35.253Z,67.53
2018-09-17T06:04:05.006Z,67.56
2018-09-17T06:06:35.037Z,67.45
2018-09-17T06:09:07.925Z,67.27
2018-09-17T06:11:37.999Z,67.31
2018-09-17T06:14:09.484Z,67.58
2018-09-17T06:16:39.310Z,67.59
2018-09-17T06:19:09.423Z,67.50
2018-09-17T06:21:40.279Z,67.41
2018-09-17T06:24:10.137Z,67.62
2018-09-17T06:26:40.351Z,67.13
2018-09-17T06:29:11.210Z,67.37
2018-09-17T06:31:40.967Z,67.50
2018-09-17T06:34:11.489Z,67.15
2018-09-17T06:36:41.697Z,67.48
2018-09-17T06:39:11.829Z,67.04
2018-09-17T06:41:42.735Z,67.24
2018-09-17T06:44:12.905Z,67.39
2018-09-17T06:46:42.919Z,67.38
2018-09-17T06:49:12.703Z,66.91
2018-09-17T06:51:42.894Z,67.26
2018-09-17T06:54:14.982Z,66.88
2018-09-17T06:56:47.138Z,66.73
2018-09-17T06:59:17.621Z,66.75
2018-09-17T07:01:47.582Z,66.83
2018-09-17T07:04:17.837Z,66.80
2018-09-17T07:06:48.086Z,66.42
2018-09-17T07:09:17.973Z,66.41
2018-09-17T07:11:48.013Z,66.15
2018-09-17T07:14:17.785Z,66.25
2018-09-17T07:16:48.534Z,66.22
2018-09-17T07:19:18.319Z,66.57
2018-09-17T07:21:48.324Z,66.19
2018-09-17T07:24:18.442Z,66.29
2018-09-17T07:26:48.467Z,66.14
2018-09-17T07:29:18.485Z,65.96
2018-09-17T07:31:48.881Z,66.03
2018-09-17T07:34:18.590Z,65.33
2018-09-17T07:36:49.388Z,65.62
2018-09-17T07:39:20.211Z,65.23
2018-09-17T07:41:51.443Z,65.11
2018-09-17T07:44:22.292Z,65.10
2018-09-17T07:46:51.977Z,65.35
2018-09-17T07:49:22.750Z,65.21
2018-09-17T07:51:53.366Z,64.56
2018-09-17T07:54:23.090Z,64.54
2018-09-17T07:56:54.278Z,64.37
2018-09-17T07:59:24.048Z,64.68
2018-09-17T08:01:54.666Z,64.60
2018-09-17T08:04:25.075Z,64.56
2018-09-17T08:06:55.982Z,64.72
2018-09-17T08:09:26.576Z,64.36
2018-09-17T08:11:56.944Z,64.38
2018-09-17T08:14:27.123Z,64.54
2018-09-17T08:16:56.834Z,64.83
2018-09-17T08:19:28.086Z,64.84
2018-09-17T08:21:59.192Z,64.94
2018-09-17T08:24:29.577Z,64.75
2018-09-17T08:27:00.806Z,65.12
2018-09-17T08:29:31.819Z,64.98
2018-09-17T08:32:01.928Z,65.27
2018-09-17T08:34:31.766Z,65.40
2018-09-17T08:37:02.492Z,65.42
2018-09-17T08:39:32.599Z,65.21
2018-09-17T08:42:03.347Z,65.46
2018-09-17T08:44:34.137Z,65.55
2018-09-17T08:47:04.709Z,65.36
2018-09-17T08:49:34.482Z,65.34
2018-09-17T08:52:04.285Z,65.52
2018-09-17T08:54:38.346Z,65.35
2018-09-17T08:57:13.021Z,65.59
2018-09-17T08:59:52.230Z,65.43
2018-09-17T09:02:27.092Z,65.88
2018-09-17T09:04:59.562Z,65.77
2018-09-17T09:07:40.189Z,65.52
2018-09-17T09:10:18.920Z,65.33
2018-09-17T09:12:54.444Z,65.39
2018-09-17T09:15:28.108Z,65.75
2018-09-17T09:17:59.750Z,65.85
2018-09-17T09:20:29.530Z,65.54
2018-09-17T09:23:00.313Z,65.45
2018-09-17T09:25:30.613Z,65.75
2018-09-17T09:28:01.787Z,65.46
2018-09-17T09:30:32.122Z,65.80
2018-09-17T09:33:02.138Z,65.65
2018-09-17T09:35:32.321Z,65.93
2018-09-17T09:38:02.514Z,65.86
2018-09-17T09:40:37.409Z,66.11
2018-09-17T09:43:08.298Z,65.87
2018-09-17T09:45:38.460Z,66.29
2018-09-17T09:48:08.793Z,66.08
2018-09-17T09:50:39.484Z,66.01
2018-09-17T09:53:10.110Z,66.49
2018-09-17T09:55:42.317Z,66.13
2018-09-17T09:58:12.421Z,66.11
2018-09-17T10:00:48.085Z,66.44
2018-09-17T10:03:22.825Z,66.42
2018-09-17T10:05:55.332Z,66.26
2018-09-17T10:08:25.233Z,66.28
2018-09-17T10:11:01.469Z,66.38
2018-09-17T10:13:38.026Z,66.36
2018-09-17T10:16:13.201Z,66.45
2018-09-17T10:18:48.898Z,66.34
2018-09-17T10:21:18.793Z,66.36
2018-09-17T10:23:49.449Z,66.12
2018-09-17T10:26:20.313Z,66.21
2018-09-17T10:28:54.165Z,66.38
2018-09-17T10:31:25.130Z,66.33
2018-09-17T10:33:55.558Z,65.97
2018-09-17T10:36:25.909Z,65.96
2018-09-17T10:38:56.252Z,66.34
2018-09-17T10:41:28.373Z,65.98
2018-09-17T10:43:58.389Z,66.07
2018-09-17T10:46:29.517Z,65.54
2018-09-17T10:48:59.488Z,65.38
2018-09-17T10:51:30.256Z,65.44
2018-09-17T10:54:01.362Z,65.56
2018-09-17T10:56:31.016Z,64.98
2018-09-17T10:59:02.378Z,65.29
2018-09-17T11:01:32.512Z,64.83
2018-09-17T11:04:05.870Z,64.91
2018-09-17T11:06:38.668Z,65.13
2018-09-17T11:09:17.736Z,65.69
2018-09-17T11:11:49.461Z,65.77
2018-09-17T11:14:22.026Z,66.01
2018-09-17T11:16:53.317Z,64.91
2018-09-17T11:19:23.157Z,65.04
2018-09-17T11:21:53.614Z,65.10
2018-09-17T11:24:24.839Z,64.78
2018-09-17T11:26:55.426Z,64.79
2018-09-17T11:29:31.929Z,64.80
2018-09-17T11:32:02.321Z,64.32
2018-09-17T11:34:33.126Z,64.39
2018-09-17T11:37:03.072Z,64.46
2018-09-17T11:39:34.463Z,64.51
2018-09-17T11:42:08.208Z,63.90
2018-09-17T11:44:39.139Z,64.25
2018-09-17T11:47:09.961Z,63.97
2018-09-17T11:49:40.577Z,63.98
2018-09-17T11:52:10.709Z,64.14
2018-09-17T11:54:42.717Z,63.93
2018-09-17T11:57:13.279Z,63.87
2018-09-17T11:59:43.443Z,64.34
2018-09-17T12:04:21.727Z,63.87
2018-09-17T12:06:57.335Z,63.89
2018-09-17T12:09:31.548Z,63.77
2018-09-17T12:12:03.471Z,63.60
2018-09-17T12:14:33.864Z,63.61
2018-09-17T12:17:04.740Z,63.66
2018-09-17T12:19:36.058Z,63.42
2018-09-17T12:22:19.261Z,62.74
2018-09-17T12:24:49.802Z,62.87
2018-09-17T12:27:19.465Z,62.62
2018-09-17T12:29:49.426Z,61.66
2018-09-17T12:32:19.363Z,61.88
2018-09-17T12:34:49.582Z,60.76
2018-09-17T12:37:19.821Z,60.33
2018-09-17T12:39:49.803Z,60.06
2018-09-17T12:42:20.161Z,60.24
2018-09-17T12:44:51.389Z,60.13
2018-09-17T12:47:22.684Z,59.89
2018-09-17T12:49:53.354Z,59.42
2018-09-17T12:52:23.889Z,59.48
2018-09-17T12:56:24.459Z,58.78
2018-09-17T12:58:56.216Z,58.45
2018-09-17T13:01:26.065Z,57.92
2018-09-17T13:03:57.308Z,57.31
2018-09-17T13:06:29.199Z,56.76
2018-09-17T13:09:00.851Z,57.27
2018-09-17T13:11:30.812Z,57.46
2018-09-17T13:14:02.178Z,57.61
2018-09-17T13:16:31.928Z,57.68
2018-09-17T13:19:02.718Z,57.76
2018-09-17T13:21:33.037Z,57.76
2018-09-17T13:24:03.721Z,58.31
2018-09-17T13:26:34.639Z,58.38
2018-09-17T13:29:07.395Z,58.32
2018-09-17T13:31:37.508Z,58.77
2018-09-17T13:34:07.583Z,59.09
2018-09-17T13:36:38.246Z,58.68
2018-09-17T13:39:09.192Z,59.04
2018-09-17T13:41:39.610Z,59.07
2018-09-17T13:44:09.515Z,59.26
2018-09-17T13:46:39.736Z,58.94
2018-09-17T13:49:10.205Z,59.37
2018-09-17T13:51:39.863Z,59.03
2018-09-17T13:54:10.634Z,59.05
2018-09-17T13:56:41.857Z,59.15
2018-09-17T13:59:14.008Z,59.25
2018-09-17T14:01:47.624Z,59.55
2018-09-17T14:04:19.376Z,59.48
2018-09-17T14:06:49.283Z,59.69
2018-09-17T14:09:19.317Z,59.86
2018-09-17T14:11:50.043Z,59.64
2018-09-17T14:14:20.091Z,59.58
2018-09-17T14:16:51.561Z,59.92
2018-09-17T14:19:21.292Z,59.58
2018-09-17T14:21:50.907Z,59.89
2018-09-17T14:24:21.846Z,59.89
2018-09-17T14:26:52.432Z,59.70
2018-09-17T14:29:23.166Z,59.88
2018-09-17T14:31:58.317Z,59.91
2018-09-17T14:34:31.736Z,59.99
2018-09-17T14:37:02.294Z,60.02
2018-09-17T14:39:34.445Z,59.95
2018-09-17T14:42:05.405Z,60.13
2018-09-17T14:44:41.431Z,60.07
2018-09-17T14:47:13.723Z,60.11
2018-09-17T14:49:45.346Z,59.99
2018-09-17T14:52:22.028Z,60.21
2018-09-17T14:55:09.145Z,60.15
2018-09-17T14:57:43.769Z,60.37
2018-09-17T15:00:14.262Z,60.16
2018-09-17T15:02:44.519Z,60.16
2018-09-17T15:05:21.246Z,60.47
2018-09-17T15:07:52.820Z,60.39
2018-09-17T15:10:24.658Z,60.28
2018-09-17T15:12:54.781Z,60.22
2018-09-17T15:15:25.267Z,60.62
2018-09-17T15:17:57.082Z,60.52
2018-09-17T15:20:27.102Z,60.47
2018-09-17T15:22:56.676Z,60.27
2018-09-17T15:25:27.397Z,60.75
2018-09-17T15:27:57.329Z,60.39
2018-09-17T15:30:29.400Z,60.66
2018-09-17T15:32:59.374Z,60.81
2018-09-17T15:35:30.973Z,60.81
2018-09-17T15:38:05.819Z,60.93
2018-09-17T15:40:35.930Z,60.58
2018-09-17T15:43:08.076Z,60.73
2018-09-17T15:45:39.203Z,60.79
2018-09-17T15:48:09.402Z,60.86
2018-09-17T15:50:39.164Z,60.90
2018-09-17T15:53:08.849Z,60.54
2018-09-17T15:55:39.378Z,60.80
2018-09-17T15:58:10.152Z,60.86
2018-09-17T16:00:39.666Z,60.84
2018-09-17T16:03:09.826Z,60.98
2018-09-17T16:05:40.364Z,61.05
2018-09-17T16:08:10.141Z,61.34
2018-09-17T16:10:40.253Z,61.08
2018-09-17T16:13:10.258Z,61.17
2018-09-17T16:15:40.209Z,60.84
2018-09-17T16:18:10.389Z,61.49
2018-09-17T16:20:43.346Z,61.07
2018-09-17T16:23:13.858Z,61.49
2018-09-17T16:25:43.546Z,61.36
2018-09-17T16:28:13.417Z,61.13
2018-09-17T16:30:43.132Z,61.14
2018-09-17T16:33:13.796Z,61.57
2018-09-17T16:35:45.331Z,61.26
2018-09-17T16:38:16.700Z,61.31
2018-09-17T16:40:47.374Z,61.13
2018-09-17T16:43:16.897Z,61.30
2018-09-17T16:45:47.582Z,61.63
2018-09-17T16:48:17.462Z,61.89
2018-09-17T16:50:47.753Z,61.66
2018-09-17T16:53:17.268Z,61.29
2018-09-17T16:55:47.093Z,61.70
2018-09-17T16:58:18.126Z,61.73
2018-09-17T17:00:49.639Z,61.36
2018-09-17T17:03:20.835Z,61.74
2018-09-17T17:05:53.394Z,61.44
2018-09-17T17:08:23.256Z,62.01
2018-09-17T17:10:53.379Z,61.72
2018-09-17T17:13:23.725Z,61.91
2018-09-17T17:15:54.189Z,61.90
2018-09-17T17:18:26.575Z,61.69
2018-09-17T17:20:57.778Z,62.16
2018-09-17T17:23:29.276Z,61.94
2018-09-17T17:25:59.627Z,61.96
2018-09-17T17:28:30.566Z,62.18
2018-09-17T17:31:01.843Z,62.14
2018-09-17T17:33:32.481Z,61.94
2018-09-17T17:36:02.442Z,62.53
2018-09-17T17:38:31.905Z,61.76
2018-09-17T17:41:02.215Z,62.32
2018-09-17T17:43:32.001Z,62.04
2018-09-17T17:46:02.035Z,62.19
2018-09-17T17:48:33.473Z,62.13
2018-09-17T17:51:04.092Z,62.33
2018-09-17T17:53:37.274Z,62.18
2018-09-17T17:56:08.140Z,62.30
2018-09-17T17:58:38.366Z,62.57
2018-09-17T18:01:10.863Z,62.34
2018-09-17T18:03:41.438Z,62.60
2018-09-17T18:06:11.221Z,62.05
2018-09-17T18:08:41.253Z,62.29
2018-09-17T18:11:12.264Z,62.49
2018-09-17T18:13:41.882Z,62.61
2018-09-17T18:16:12.335Z,62.79
2018-09-17T18:18:42.425Z,62.36
2018-09-17T18:21:13.802Z,62.20
2018-09-17T18:23:44.694Z,61.82
2018-09-17T18:26:16.184Z,62.30
2018-09-17T18:28:46.025Z,62.02
2018-09-17T18:31:17.604Z,62.36
2018-09-17T18:33:47.251Z,62.34
2018-09-17T18:36:17.053Z,62.14
2018-09-17T18:38:47.182Z,62.50
2018-09-17T18:41:17.781Z,62.41
2018-09-17T18:43:47.605Z,62.63
2018-09-17T18:46:19.384Z,62.71
2018-09-17T18:48:49.602Z,62.39
2018-09-17T18:51:21.195Z,62.39
2018-09-17T18:53:52.195Z,62.66
2018-09-17T18:56:23.269Z,62.41
2018-09-17T18:58:53.406Z,62.49
2018-09-17T19:01:24.553Z,62.74
2018-09-17T19:03:56.373Z,62.74
2018-09-17T19:06:26.918Z,62.73
2018-09-17T19:08:56.867Z,62.91
2018-09-17T19:11:26.959Z,62.75
2018-09-17T19:14:01.518Z,62.83
2018-09-17T19:16:37.685Z,62.66
2018-09-17T19:19:10.760Z,62.86
2018-09-17T19:21:47.986Z,62.57
2018-09-17T19:24:19.965Z,62.68
2018-09-17T19:26:52.466Z,62.90
2018-09-17T19:29:24.205Z,62.92
2018-09-17T19:31:54.891Z,62.80
2018-09-17T19:34:25.993Z,63.31
2018-09-17T19:37:00.025Z,62.85
2018-09-17T19:39:34.897Z,62.86
2018-09-17T19:42:06.372Z,63.12
2018-09-17T19:44:36.400Z,63.00
2018-09-17T19:47:06.570Z,63.06
2018-09-17T19:49:37.818Z,63.18
2018-09-17T19:52:13.829Z,63.15
2018-09-17T19:54:45.270Z,62.98
2018-09-17T19:57:22.220Z,63.10
2018-09-17T19:59:55.282Z,62.98
2018-09-17T20:02:25.702Z,63.19
2018-09-17T20:05:02.205Z,63.19
2018-09-17T20:07:32.442Z,63.05
2018-09-17T20:10:04.074Z,63.36
2018-09-17T20:12:34.294Z,63.41
2018-09-17T20:15:05.262Z,63.42
2018-09-17T20:17:35.133Z,63.45
2018-09-17T20:20:05.449Z,63.37
2018-09-17T20:22:36.405Z,63.47
2018-09-17T20:25:06.134Z,63.39
2018-09-17T20:27:37.217Z,63.24
2018-09-17T20:30:07.124Z,63.52
2018-09-17T20:32:37.080Z,63.58
2018-09-17T20:35:07.978Z,63.67
2018-09-17T20:37:38.093Z,63.39
2018-09-17T20:40:08.442Z,63.11
2018-09-17T20:42:38.105Z,63.74
2018-09-17T20:45:09.153Z,63.53
2018-09-17T20:47:40.303Z,63.89
2018-09-17T20:50:11.476Z,63.73
2018-09-17T20:52:41.429Z,63.73
2018-09-17T20:55:11.898Z,63.75
2018-09-17T20:57:42.246Z,63.79
2018-09-17T21:00:12.736Z,63.62
2018-09-17T21:02:43.947Z,64.00
2018-09-17T21:05:13.664Z,63.58
2018-09-17T21:07:43.577Z,63.61
2018-09-17T21:10:14.282Z,63.65
2018-09-17T21:12:46.018Z,63.83
2018-09-17T21:15:17.076Z,63.35
2018-09-17T21:17:48.065Z,63.83
2018-09-17T21:20:18.424Z,63.57
2018-09-17T21:22:48.430Z,63.85
2018-09-17T21:25:19.597Z,63.57
2018-09-17T21:27:49.609Z,63.58
2018-09-17T21:30:19.245Z,63.97
2018-09-17T21:32:49.255Z,63.89
2018-09-17T21:35:19.121Z,63.76
2018-09-17T21:37:49.256Z,63.75
2018-09-17T21:40:19.497Z,64.33
2018-09-17T21:42:49.146Z,64.08
2018-09-17T21:45:19.810Z,63.96
2018-09-17T21:47:50.333Z,63.86
2018-09-17T21:50:20.183Z,63.82
2018-09-17T21:52:50.111Z,63.68
2018-09-17T21:55:20.979Z,63.68
2018-09-17T21:57:50.744Z,63.42
2018-09-17T22:00:20.487Z,63.84
2018-09-17T22:02:50.153Z,63.46
2018-09-17T22:05:19.952Z,64.02
2018-09-17T22:07:49.617Z,64.15
2018-09-17T22:10:19.434Z,63.75
2018-09-17T22:12:51.286Z,64.03
2018-09-17T22:15:22.477Z,64.04
2018-09-17T22:17:52.485Z,64.15
2018-09-17T22:20:22.268Z,63.89
2018-09-17T22:22:53.977Z,64.17
2018-09-17T22:25:24.561Z,64.04
2018-09-17T22:27:54.882Z,64.02
2018-09-17T22:30:25.245Z,63.74
2018-09-17T22:32:55.059Z,63.92
2018-09-17T22:35:25.876Z,63.79
2018-09-17T22:37:57.693Z,64.00
2018-09-17T22:40:29.058Z,64.00
2018-09-17T22:42:58.721Z,64.14
2018-09-17T22:45:30.141Z,64.26
2018-09-17T22:48:01.190Z,64.16
2018-09-17T22:50:31.149Z,63.95
2018-09-17T22:53:00.742Z,64.22
2018-09-17T22:55:30.469Z,64.34
2018-09-17T22:58:00.708Z,64.23
2018-09-17T23:00:30.382Z,63.96
2018-09-17T23:03:00.188Z,64.25
2018-09-17T23:05:30.856Z,64.14
2018-09-17T23:08:01.980Z,64.42
2018-09-17T23:10:31.784Z,64.18
2018-09-17T23:13:01.815Z,64.40
2018-09-17T23:15:32.653Z,64.38
2018-09-17T23:18:02.337Z,64.30
2018-09-17T23:20:32.327Z,64.50
2018-09-17T23:23:02.654Z,64.37
2018-09-17T23:25:32.418Z,64.21
2018-09-17T23:28:02.738Z,64.25
2018-09-17T23:30:32.729Z,64.51
2018-09-17T23:33:03.091Z,64.33
2018-09-17T23:35:32.885Z,64.33
2018-09-17T23:38:02.493Z,64.21
2018-09-17T23:40:32.257Z,64.22
2018-09-17T23:43:02.512Z,64.09
2018-09-17T23:45:32.189Z,64.50
2018-09-17T23:48:01.914Z,64.26
2018-09-17T23:50:31.723Z,64.23
2018-09-17T23:53:01.376Z,64.16
2018-09-17T23:55:31.194Z,64.21
2018-09-17T23:58:01.250Z,64.49
